sensor_id;sensor_type;location;lat;lon;timestamp;pressure;altitude;pressure_sealevel;temperature;humidity
15670;BME280;18524;45.190;5.732;2023-03-14T00:01:29;98352.38;;;13.88;100.00
15670;BME280;18524;45.190;5.732;2023-03-14T00:06:20;98383.00;;;13.81;100.00
15670;BME280;18524;45.190;5.732;2023-03-14T00:11:16;98356.63;;;13.65;100.00
15670;BME280;18524;45.190;5.732;2023-03-14T00:16:09;98333.53;;;13.42;100.00
15670;BME280;18524;45.190;5.732;2023-03-14T00:21:01;98336.94;;;13.27;100.00
15670;BME280;18524;45.190;5.732;2023-03-14T00:25:52;98367.88;;;13.25;100.00
15670;BME280;18524;45.190;5.732;2023-03-14T00:30:43;98359.81;;;13.26;100.00
15670;BME280;18524;45.190;5.732;2023-03-14T00:35:33;98360.31;;;13.30;100.00
15670;BME280;18524;45.190;5.732;2023-03-14T00:40:23;98370.69;;;13.31;100.00
15670;BME280;18524;45.190;5.732;2023-03-14T00:45:14;98372.97;;;13.26;100.00
15670;BME280;18524;45.190;5.732;2023-03-14T00:50:05;98373.38;;;13.39;100.00
15670;BME280;18524;45.190;5.732;2023-03-14T00:54:55;98386.88;;;13.44;100.00
15670;BME280;18524;45.190;5.732;2023-03-14T00:59:45;98370.25;;;13.44;100.00
15670;BME280;18524;45.190;5.732;2023-03-14T01:04:36;98410.03;;;13.33;100.00
15670;BME280;18524;45.190;5.732;2023-03-14T01:09:27;98433.56;;;13.34;100.00
15670;BME280;18524;45.190;5.732;2023-03-14T01:14:18;98410.84;;;13.33;100.00
15670;BME280;18524;45.190;5.732;2023-03-14T01:19:09;98368.19;;;13.22;100.00
15670;BME280;18524;45.190;5.732;2023-03-14T01:24:00;98336.03;;;13.10;100.00
15670;BME280;18524;45.190;5.732;2023-03-14T01:28:53;98353.16;;;13.14;100.00
15670;BME280;18524;45.190;5.732;2023-03-14T01:33:45;98384.00;;;12.96;100.00
15670;BME280;18524;45.190;5.732;2023-03-14T01:38:36;98387.25;;;12.90;100.00
15670;BME280;18524;45.190;5.732;2023-03-14T01:43:27;98378.56;;;12.97;100.00
15670;BME280;18524;45.190;5.732;2023-03-14T01:48:18;98388.50;;;13.03;100.00
15670;BME280;18524;45.190;5.732;2023-03-14T01:53:09;98412.69;;;13.07;100.00
15670;BME280;18524;45.190;5.732;2023-03-14T01:58:03;98421.63;;;13.14;100.00
15670;BME280;18524;45.190;5.732;2023-03-14T02:02:57;98421.63;;;13.14;100.00
15670;BME280;18524;45.190;5.732;2023-03-14T02:07:55;98414.38;;;13.16;100.00
15670;BME280;18524;45.190;5.732;2023-03-14T02:12:49;98376.84;;;13.14;100.00
15670;BME280;18524;45.190;5.732;2023-03-14T02:17:42;98340.56;;;13.26;100.00
15670;BME280;18524;45.190;5.732;2023-03-14T02:22:34;98354.53;;;13.26;100.00
15670;BME280;18524;45.190;5.732;2023-03-14T02:27:25;98348.06;;;13.12;100.00
15670;BME280;18524;45.190;5.732;2023-03-14T02:32:18;98324.59;;;13.19;100.00
15670;BME280;18524;45.190;5.732;2023-03-14T02:37:10;98312.84;;;13.13;100.00
15670;BME280;18524;45.190;5.732;2023-03-14T02:42:01;98314.28;;;13.00;100.00
15670;BME280;18524;45.190;5.732;2023-03-14T02:46:51;98297.44;;;12.84;100.00
15670;BME280;18524;45.190;5.732;2023-03-14T02:51:43;98287.78;;;12.93;100.00
15670;BME280;18524;45.190;5.732;2023-03-14T02:56:35;98279.06;;;12.93;100.00
15670;BME280;18524;45.190;5.732;2023-03-14T03:01:27;98273.75;;;12.84;100.00
15670;BME280;18524;45.190;5.732;2023-03-14T03:06:17;98277.66;;;12.64;100.00
15670;BME280;18524;45.190;5.732;2023-03-14T03:11:07;98276.25;;;12.52;100.00
15670;BME280;18524;45.190;5.732;2023-03-14T03:15:58;98267.72;;;12.58;100.00
15670;BME280;18524;45.190;5.732;2023-03-14T03:20:48;98258.53;;;12.62;100.00
15670;BME280;18524;45.190;5.732;2023-03-14T03:25:38;98261.53;;;12.67;100.00
15670;BME280;18524;45.190;5.732;2023-03-14T03:30:29;98256.13;;;12.69;100.00
15670;BME280;18524;45.190;5.732;2023-03-14T03:35:19;98248.59;;;12.40;100.00
15670;BME280;18524;45.190;5.732;2023-03-14T03:40:10;98242.69;;;12.46;100.00
15670;BME280;18524;45.190;5.732;2023-03-14T03:45:03;98243.84;;;12.43;100.00
15670;BME280;18524;45.190;5.732;2023-03-14T03:49:53;98239.56;;;12.42;100.00
15670;BME280;18524;45.190;5.732;2023-03-14T03:54:44;98230.69;;;12.43;100.00
15670;BME280;18524;45.190;5.732;2023-03-14T03:59:34;98226.09;;;12.45;100.00
15670;BME280;18524;45.190;5.732;2023-03-14T04:04:24;98228.25;;;12.50;100.00
15670;BME280;18524;45.190;5.732;2023-03-14T04:09:15;98210.00;;;12.48;100.00
15670;BME280;18524;45.190;5.732;2023-03-14T04:14:05;98209.03;;;12.49;100.00
15670;BME280;18524;45.190;5.732;2023-03-14T04:18:56;98214.44;;;12.48;100.00
15670;BME280;18524;45.190;5.732;2023-03-14T04:23:46;98204.59;;;12.50;100.00
15670;BME280;18524;45.190;5.732;2023-03-14T04:28:37;98190.09;;;12.46;100.00
15670;BME280;18524;45.190;5.732;2023-03-14T04:33:29;98179.44;;;12.47;100.00
15670;BME280;18524;45.190;5.732;2023-03-14T04:38:19;98154.94;;;12.47;100.00
15670;BME280;18524;45.190;5.732;2023-03-14T04:43:10;98154.63;;;12.50;100.00
15670;BME280;18524;45.190;5.732;2023-03-14T04:48:01;98155.41;;;12.42;100.00
15670;BME280;18524;45.190;5.732;2023-03-14T04:52:52;98145.91;;;12.49;100.00
15670;BME280;18524;45.190;5.732;2023-03-14T04:57:42;98132.75;;;12.49;100.00
15670;BME280;18524;45.190;5.732;2023-03-14T05:02:33;98131.28;;;12.47;100.00
15670;BME280;18524;45.190;5.732;2023-03-14T05:07:24;98128.97;;;12.44;100.00
15670;BME280;18524;45.190;5.732;2023-03-14T05:12:14;98129.47;;;12.56;100.00
15670;BME280;18524;45.190;5.732;2023-03-14T05:17:04;98120.25;;;12.43;100.00
15670;BME280;18524;45.190;5.732;2023-03-14T05:21:55;98128.78;;;12.37;100.00
15670;BME280;18524;45.190;5.732;2023-03-14T05:26:45;98114.81;;;12.37;100.00
15670;BME280;18524;45.190;5.732;2023-03-14T05:31:35;98128.31;;;12.42;100.00
15670;BME280;18524;45.190;5.732;2023-03-14T05:36:26;98125.84;;;12.40;100.00
15670;BME280;18524;45.190;5.732;2023-03-14T05:41:16;98113.50;;;12.41;100.00
15670;BME280;18524;45.190;5.732;2023-03-14T05:46:06;98127.97;;;12.37;100.00
15670;BME280;18524;45.190;5.732;2023-03-14T05:50:57;98137.81;;;12.35;100.00
15670;BME280;18524;45.190;5.732;2023-03-14T05:55:53;98141.91;;;12.29;100.00
15670;BME280;18524;45.190;5.732;2023-03-14T06:00:43;98140.78;;;12.32;100.00
15670;BME280;18524;45.190;5.732;2023-03-14T06:05:34;98137.47;;;12.30;100.00
15670;BME280;18524;45.190;5.732;2023-03-14T06:10:24;98143.25;;;12.33;100.00
15670;BME280;18524;45.190;5.732;2023-03-14T06:15:15;98145.72;;;12.35;100.00
15670;BME280;18524;45.190;5.732;2023-03-14T06:20:05;98145.81;;;12.25;100.00
15670;BME280;18524;45.190;5.732;2023-03-14T06:24:56;98151.78;;;12.35;100.00
15670;BME280;18524;45.190;5.732;2023-03-14T06:29:46;98153.94;;;12.40;100.00
15670;BME280;18524;45.190;5.732;2023-03-14T06:34:36;98159.50;;;12.29;100.00
15670;BME280;18524;45.190;5.732;2023-03-14T06:39:28;98163.56;;;12.23;100.00
15670;BME280;18524;45.190;5.732;2023-03-14T06:44:18;98161.06;;;12.21;100.00
15670;BME280;18524;45.190;5.732;2023-03-14T06:49:09;98162.28;;;12.27;100.00
15670;BME280;18524;45.190;5.732;2023-03-14T06:53:59;98164.22;;;12.25;100.00
15670;BME280;18524;45.190;5.732;2023-03-14T06:58:51;98163.72;;;12.21;100.00
15670;BME280;18524;45.190;5.732;2023-03-14T07:03:42;98179.16;;;12.25;100.00
15670;BME280;18524;45.190;5.732;2023-03-14T07:08:33;98185.81;;;12.37;100.00
15670;BME280;18524;45.190;5.732;2023-03-14T07:13:23;98182.16;;;12.30;100.00
15670;BME280;18524;45.190;5.732;2023-03-14T07:18:13;98184.31;;;12.34;100.00
15670;BME280;18524;45.190;5.732;2023-03-14T07:23:04;98188.69;;;12.26;100.00
15670;BME280;18524;45.190;5.732;2023-03-14T07:27:54;98205.91;;;12.20;100.00
15670;BME280;18524;45.190;5.732;2023-03-14T07:32:45;98214.78;;;12.19;100.00
15670;BME280;18524;45.190;5.732;2023-03-14T07:37:35;98226.94;;;12.20;100.00
15670;BME280;18524;45.190;5.732;2023-03-14T07:42:25;98223.69;;;12.26;100.00
15670;BME280;18524;45.190;5.732;2023-03-14T07:47:16;98241.00;;;12.29;100.00
15670;BME280;18524;45.190;5.732;2023-03-14T07:52:06;98243.06;;;12.25;100.00
15670;BME280;18524;45.190;5.732;2023-03-14T07:56:57;98257.34;;;12.23;100.00
15670;BME280;18524;45.190;5.732;2023-03-14T08:01:50;98256.84;;;12.19;100.00
15670;BME280;18524;45.190;5.732;2023-03-14T08:06:40;98264.94;;;12.00;100.00
15670;BME280;18524;45.190;5.732;2023-03-14T08:11:31;98277.78;;;12.03;100.00
15670;BME280;18524;45.190;5.732;2023-03-14T08:16:21;98288.28;;;12.03;100.00
15670;BME280;18524;45.190;5.732;2023-03-14T08:21:12;98300.59;;;12.02;100.00
15670;BME280;18524;45.190;5.732;2023-03-14T08:26:03;98304.72;;;12.05;100.00
15670;BME280;18524;45.190;5.732;2023-03-14T08:30:54;98317.34;;;12.01;100.00
15670;BME280;18524;45.190;5.732;2023-03-14T08:35:44;98321.25;;;11.97;100.00
15670;BME280;18524;45.190;5.732;2023-03-14T08:40:35;98327.91;;;12.09;100.00
15670;BME280;18524;45.190;5.732;2023-03-14T08:45:25;98334.97;;;12.09;100.00
15670;BME280;18524;45.190;5.732;2023-03-14T08:50:16;98336.13;;;12.06;100.00
15670;BME280;18524;45.190;5.732;2023-03-14T08:55:08;98349.25;;;12.06;100.00
15670;BME280;18524;45.190;5.732;2023-03-14T08:59:59;98363.88;;;12.09;100.00
15670;BME280;18524;45.190;5.732;2023-03-14T09:04:50;98369.91;;;12.01;100.00
15670;BME280;18524;45.190;5.732;2023-03-14T09:09:41;98383.09;;;12.09;100.00
15670;BME280;18524;45.190;5.732;2023-03-14T09:14:31;98389.03;;;12.11;100.00
15670;BME280;18524;45.190;5.732;2023-03-14T09:19:22;98398.94;;;12.17;100.00
15670;BME280;18524;45.190;5.732;2023-03-14T09:24:12;98419.91;;;12.09;100.00
15670;BME280;18524;45.190;5.732;2023-03-14T09:29:02;98435.75;;;12.17;100.00
15670;BME280;18524;45.190;5.732;2023-03-14T09:33:53;98462.78;;;12.28;100.00
15670;BME280;18524;45.190;5.732;2023-03-14T09:38:43;98474.50;;;12.15;100.00
15670;BME280;18524;45.190;5.732;2023-03-14T09:43:35;98487.19;;;12.20;100.00
15670;BME280;18524;45.190;5.732;2023-03-14T09:48:32;98491.38;;;12.13;100.00
15670;BME280;18524;45.190;5.732;2023-03-14T09:53:43;98513.03;;;12.25;100.00
15670;BME280;18524;45.190;5.732;2023-03-14T09:58:35;98523.16;;;12.19;100.00
15670;BME280;18524;45.190;5.732;2023-03-14T10:03:33;98539.09;;;12.18;100.00
15670;BME280;18524;45.190;5.732;2023-03-14T10:08:25;98547.13;;;12.16;100.00
15670;BME280;18524;45.190;5.732;2023-03-14T10:18:12;98562.41;;;12.31;100.00
15670;BME280;18524;45.190;5.732;2023-03-14T10:23:16;98573.59;;;12.33;100.00
15670;BME280;18524;45.190;5.732;2023-03-14T10:28:29;98585.09;;;12.32;100.00
15670;BME280;18524;45.190;5.732;2023-03-14T10:38:14;98611.16;;;12.43;100.00
15670;BME280;18524;45.190;5.732;2023-03-14T10:43:11;98627.97;;;12.32;100.00
15670;BME280;18524;45.190;5.732;2023-03-14T10:48:18;98643.91;;;12.31;100.00
15670;BME280;18524;45.190;5.732;2023-03-14T10:53:09;98655.28;;;12.21;100.00
15670;BME280;18524;45.190;5.732;2023-03-14T10:57:59;98635.50;;;12.27;100.00
15670;BME280;18524;45.190;5.732;2023-03-14T11:03:13;98652.50;;;12.50;100.00
15670;BME280;18524;45.190;5.732;2023-03-14T11:13:30;98664.34;;;12.82;99.94
15670;BME280;18524;45.190;5.732;2023-03-14T11:29:08;98678.88;;;13.22;100.00
15670;BME280;18524;45.190;5.732;2023-03-14T11:34:25;98672.59;;;13.58;94.81
15670;BME280;18524;45.190;5.732;2023-03-14T11:39:19;98675.09;;;13.86;87.71
15670;BME280;18524;45.190;5.732;2023-03-14T11:44:16;98687.19;;;14.30;84.51
15670;BME280;18524;45.190;5.732;2023-03-14T11:54:16;98666.78;;;15.07;82.38
15670;BME280;18524;45.190;5.732;2023-03-14T11:59:33;98693.22;;;15.07;77.54
15670;BME280;18524;45.190;5.732;2023-03-14T12:09:26;98678.53;;;15.21;73.59
15670;BME280;18524;45.190;5.732;2023-03-14T12:24:17;98682.31;;;15.10;85.68
15670;BME280;18524;45.190;5.732;2023-03-14T12:39:04;98672.44;;;15.37;72.79
15670;BME280;18524;45.190;5.732;2023-03-14T12:43:55;98671.91;;;15.57;83.15
15670;BME280;18524;45.190;5.732;2023-03-14T12:48:54;98671.28;;;15.72;74.12
15670;BME280;18524;45.190;5.732;2023-03-14T12:59:01;98673.41;;;15.11;66.58
15670;BME280;18524;45.190;5.732;2023-03-14T13:04:04;98674.06;;;14.89;70.37
15670;BME280;18524;45.190;5.732;2023-03-14T13:08:57;98664.28;;;14.39;77.95
15670;BME280;18524;45.190;5.732;2023-03-14T13:13:49;98644.13;;;14.22;79.60
15670;BME280;18524;45.190;5.732;2023-03-14T13:18:43;98647.75;;;14.21;81.59
15670;BME280;18524;45.190;5.732;2023-03-14T13:23:36;98646.31;;;14.34;80.78
15670;BME280;18524;45.190;5.732;2023-03-14T13:28:29;98657.56;;;14.45;80.47
15670;BME280;18524;45.190;5.732;2023-03-14T13:33:22;98671.44;;;14.47;82.65
15670;BME280;18524;45.190;5.732;2023-03-14T13:38:15;98692.75;;;14.19;75.58
15670;BME280;18524;45.190;5.732;2023-03-14T13:43:27;98704.00;;;13.52;78.21
15670;BME280;18524;45.190;5.732;2023-03-14T13:48:22;98691.28;;;13.29;82.81
15670;BME280;18524;45.190;5.732;2023-03-14T13:53:15;98704.69;;;13.36;89.21
15670;BME280;18524;45.190;5.732;2023-03-14T13:58:13;98701.81;;;13.29;87.83
15670;BME280;18524;45.190;5.732;2023-03-14T14:03:10;98699.50;;;13.26;87.21
15670;BME280;18524;45.190;5.732;2023-03-14T14:08:02;98709.38;;;12.97;87.54
15670;BME280;18524;45.190;5.732;2023-03-14T14:13:01;98712.44;;;13.02;90.47
15670;BME280;18524;45.190;5.732;2023-03-14T14:17:57;98709.97;;;13.18;92.80
15670;BME280;18524;45.190;5.732;2023-03-14T14:22:50;98710.25;;;13.15;88.04
15670;BME280;18524;45.190;5.732;2023-03-14T14:27:47;98724.53;;;13.12;90.88
15670;BME280;18524;45.190;5.732;2023-03-14T14:32:39;98735.06;;;13.12;97.41
15670;BME280;18524;45.190;5.732;2023-03-14T14:37:35;98740.44;;;13.21;93.05
15670;BME280;18524;45.190;5.732;2023-03-14T14:42:31;98732.38;;;13.22;91.35
15670;BME280;18524;45.190;5.732;2023-03-14T14:47:24;98732.00;;;13.17;86.28
15670;BME280;18524;45.190;5.732;2023-03-14T14:52:18;98719.66;;;13.18;91.38
15670;BME280;18524;45.190;5.732;2023-03-14T14:57:21;98720.31;;;13.02;83.42
15670;BME280;18524;45.190;5.732;2023-03-14T15:02:37;98724.88;;;13.00;91.16
15670;BME280;18524;45.190;5.732;2023-03-14T15:07:34;98728.19;;;12.84;93.12
15670;BME280;18524;45.190;5.732;2023-03-14T15:12:24;98756.22;;;12.75;95.75
15670;BME280;18524;45.190;5.732;2023-03-14T15:17:15;98783.50;;;12.74;97.83
15670;BME280;18524;45.190;5.732;2023-03-14T15:22:12;98814.31;;;12.55;97.60
15670;BME280;18524;45.190;5.732;2023-03-14T15:27:05;98775.91;;;12.25;93.99
15670;BME280;18524;45.190;5.732;2023-03-14T15:32:00;98774.06;;;11.98;88.24
15670;BME280;18524;45.190;5.732;2023-03-14T15:36:51;98783.28;;;12.11;96.92
15670;BME280;18524;45.190;5.732;2023-03-14T15:41:41;98779.13;;;12.28;100.00
15670;BME280;18524;45.190;5.732;2023-03-14T15:46:31;98769.75;;;12.53;99.09
15670;BME280;18524;45.190;5.732;2023-03-14T15:51:22;98779.13;;;12.65;100.00
15670;BME280;18524;45.190;5.732;2023-03-14T15:56:17;98789.91;;;12.62;99.98
15670;BME280;18524;45.190;5.732;2023-03-14T16:01:08;98808.50;;;12.51;91.86
15670;BME280;18524;45.190;5.732;2023-03-14T16:05:59;98812.22;;;12.11;93.51
15670;BME280;18524;45.190;5.732;2023-03-14T16:10:49;98820.78;;;12.13;97.21
15670;BME280;18524;45.190;5.732;2023-03-14T16:15:40;98832.28;;;12.03;93.05
15670;BME280;18524;45.190;5.732;2023-03-14T16:20:30;98835.19;;;12.09;96.11
15670;BME280;18524;45.190;5.732;2023-03-14T16:25:20;98825.34;;;12.21;93.46
15670;BME280;18524;45.190;5.732;2023-03-14T16:30:11;98826.03;;;12.13;86.85
15670;BME280;18524;45.190;5.732;2023-03-14T16:35:03;98827.41;;;12.17;95.36
15670;BME280;18524;45.190;5.732;2023-03-14T16:39:53;98827.69;;;12.14;95.36
15670;BME280;18524;45.190;5.732;2023-03-14T16:44:44;98833.94;;;12.04;95.65
15670;BME280;18524;45.190;5.732;2023-03-14T16:49:34;98828.69;;;11.84;88.57
15670;BME280;18524;45.190;5.732;2023-03-14T16:54:24;98834.38;;;11.80;87.77
15670;BME280;18524;45.190;5.732;2023-03-14T16:59:15;98844.31;;;11.57;88.27
15670;BME280;18524;45.190;5.732;2023-03-14T17:04:05;98853.13;;;11.46;89.09
15670;BME280;18524;45.190;5.732;2023-03-14T17:08:58;98853.53;;;11.42;93.90
15670;BME280;18524;45.190;5.732;2023-03-14T17:13:48;98857.53;;;11.46;99.01
15670;BME280;18524;45.190;5.732;2023-03-14T17:18:39;98847.03;;;11.46;99.86
15670;BME280;18524;45.190;5.732;2023-03-14T17:23:30;98867.78;;;11.49;96.11
15670;BME280;18524;45.190;5.732;2023-03-14T17:28:22;98868.59;;;11.49;100.00
15670;BME280;18524;45.190;5.732;2023-03-14T17:33:13;98869.44;;;11.50;97.80
15670;BME280;18524;45.190;5.732;2023-03-14T17:38:04;98874.44;;;11.53;98.64
15670;BME280;18524;45.190;5.732;2023-03-14T17:42:54;98894.44;;;11.44;93.68
15670;BME280;18524;45.190;5.732;2023-03-14T17:47:45;98909.50;;;11.42;95.45
15670;BME280;18524;45.190;5.732;2023-03-14T17:52:35;98921.22;;;11.38;100.00
15670;BME280;18524;45.190;5.732;2023-03-14T17:57:27;98939.88;;;11.25;100.00
15670;BME280;18524;45.190;5.732;2023-03-14T18:02:18;98942.88;;;11.21;100.00
15670;BME280;18524;45.190;5.732;2023-03-14T18:07:08;98952.00;;;11.17;100.00
15670;BME280;18524;45.190;5.732;2023-03-14T18:11:59;98959.72;;;11.18;100.00
15670;BME280;18524;45.190;5.732;2023-03-14T18:16:49;98960.81;;;11.16;100.00
15670;BME280;18524;45.190;5.732;2023-03-14T18:21:42;98974.88;;;11.15;100.00
15670;BME280;18524;45.190;5.732;2023-03-14T18:26:33;98981.56;;;11.19;100.00
15670;BME280;18524;45.190;5.732;2023-03-14T18:31:23;98979.09;;;10.96;97.06
15670;BME280;18524;45.190;5.732;2023-03-14T18:36:14;98983.63;;;10.94;100.00
15670;BME280;18524;45.190;5.732;2023-03-14T18:41:06;98981.50;;;10.79;100.00
15670;BME280;18524;45.190;5.732;2023-03-14T18:45:58;98990.34;;;10.67;100.00
15670;BME280;18524;45.190;5.732;2023-03-14T18:50:48;98994.25;;;10.72;100.00
15670;BME280;18524;45.190;5.732;2023-03-14T18:55:39;98995.59;;;10.67;100.00
15670;BME280;18524;45.190;5.732;2023-03-14T19:00:30;98998.41;;;10.75;100.00
15670;BME280;18524;45.190;5.732;2023-03-14T19:05:20;99016.72;;;10.65;100.00
15670;BME280;18524;45.190;5.732;2023-03-14T19:10:11;99014.78;;;10.67;100.00
15670;BME280;18524;45.190;5.732;2023-03-14T19:15:01;99018.13;;;10.69;98.99
15670;BME280;18524;45.190;5.732;2023-03-14T19:19:52;99016.00;;;10.63;96.96
15670;BME280;18524;45.190;5.732;2023-03-14T19:24:43;99020.22;;;10.75;100.00
15670;BME280;18524;45.190;5.732;2023-03-14T19:29:33;99017.72;;;10.74;100.00
15670;BME280;18524;45.190;5.732;2023-03-14T19:34:31;99026.13;;;10.88;98.13
15670;BME280;18524;45.190;5.732;2023-03-14T19:39:21;99034.31;;;10.74;94.61
15670;BME280;18524;45.190;5.732;2023-03-14T19:44:11;99032.50;;;10.75;97.55
15670;BME280;18524;45.190;5.732;2023-03-14T19:49:02;99039.69;;;10.93;95.78
15670;BME280;18524;45.190;5.732;2023-03-14T19:53:54;99046.59;;;10.94;95.64
15670;BME280;18524;45.190;5.732;2023-03-14T19:58:46;99051.63;;;10.65;97.92
15670;BME280;18524;45.190;5.732;2023-03-14T20:03:37;99041.22;;;10.75;99.39
15670;BME280;18524;45.190;5.732;2023-03-14T20:08:27;99057.03;;;10.85;100.00
15670;BME280;18524;45.190;5.732;2023-03-14T20:13:17;99059.53;;;10.86;100.00
15670;BME280;18524;45.190;5.732;2023-03-14T20:18:08;99069.28;;;10.63;100.00
15670;BME280;18524;45.190;5.732;2023-03-14T20:22:58;99070.38;;;10.61;98.95
15670;BME280;18524;45.190;5.732;2023-03-14T20:27:49;99068.47;;;10.63;97.12
15670;BME280;18524;45.190;5.732;2023-03-14T20:32:41;99079.91;;;10.62;98.77
15670;BME280;18524;45.190;5.732;2023-03-14T20:37:32;99076.84;;;10.57;93.54
15670;BME280;18524;45.190;5.732;2023-03-14T20:42:23;99082.44;;;10.52;94.72
15670;BME280;18524;45.190;5.732;2023-03-14T20:47:16;99075.63;;;10.61;98.19
15670;BME280;18524;45.190;5.732;2023-03-14T20:52:06;99093.19;;;10.49;100.00
15670;BME280;18524;45.190;5.732;2023-03-14T20:56:56;99102.34;;;10.55;100.00
15670;BME280;18524;45.190;5.732;2023-03-14T21:01:47;99099.75;;;10.44;100.00
15670;BME280;18524;45.190;5.732;2023-03-14T21:06:39;99105.09;;;10.53;95.96
15670;BME280;18524;45.190;5.732;2023-03-14T21:11:31;99107.25;;;10.48;95.19
15670;BME280;18524;45.190;5.732;2023-03-14T21:16:25;99103.81;;;10.37;97.22
15670;BME280;18524;45.190;5.732;2023-03-14T21:21:15;99117.28;;;10.32;94.97
15670;BME280;18524;45.190;5.732;2023-03-14T21:26:06;99117.41;;;10.30;96.11
15670;BME280;18524;45.190;5.732;2023-03-14T21:31:03;99122.03;;;10.38;100.00
15670;BME280;18524;45.190;5.732;2023-03-14T21:35:53;99130.75;;;10.39;99.50
15670;BME280;18524;45.190;5.732;2023-03-14T21:40:43;99124.06;;;10.46;100.00
15670;BME280;18524;45.190;5.732;2023-03-14T21:45:39;99131.47;;;10.41;99.17
15670;BME280;18524;45.190;5.732;2023-03-14T21:50:29;99130.28;;;10.45;100.00
15670;BME280;18524;45.190;5.732;2023-03-14T21:55:19;99127.75;;;10.54;100.00
15670;BME280;18524;45.190;5.732;2023-03-14T22:00:11;99134.81;;;10.43;97.84
15670;BME280;18524;45.190;5.732;2023-03-14T22:05:02;99139.81;;;10.34;90.33
15670;BME280;18524;45.190;5.732;2023-03-14T22:09:53;99144.25;;;10.23;95.71
15670;BME280;18524;45.190;5.732;2023-03-14T22:14:45;99132.56;;;10.27;95.66
15670;BME280;18524;45.190;5.732;2023-03-14T22:19:35;99133.03;;;10.10;94.33
15670;BME280;18524;45.190;5.732;2023-03-14T22:24:26;99143.38;;;10.00;97.23
15670;BME280;18524;45.190;5.732;2023-03-14T22:29:16;99149.34;;;10.13;99.77
15670;BME280;18524;45.190;5.732;2023-03-14T22:34:07;99146.50;;;10.05;95.00
15670;BME280;18524;45.190;5.732;2023-03-14T22:38:57;99147.66;;;10.01;97.99
15670;BME280;18524;45.190;5.732;2023-03-14T22:43:47;99150.88;;;9.93;94.75
15670;BME280;18524;45.190;5.732;2023-03-14T22:48:39;99167.66;;;10.02;95.72
15670;BME280;18524;45.190;5.732;2023-03-14T22:53:29;99173.16;;;9.99;100.00
15670;BME280;18524;45.190;5.732;2023-03-14T22:58:19;99151.38;;;10.10;99.04
15670;BME280;18524;45.190;5.732;2023-03-14T23:03:10;99153.41;;;10.06;97.09
15670;BME280;18524;45.190;5.732;2023-03-14T23:08:00;99175.31;;;10.05;98.71
15670;BME280;18524;45.190;5.732;2023-03-14T23:12:50;99170.28;;;10.02;100.00
15670;BME280;18524;45.190;5.732;2023-03-14T23:17:43;99167.09;;;9.98;94.54
15670;BME280;18524;45.190;5.732;2023-03-14T23:22:34;99166.25;;;9.87;95.59
15670;BME280;18524;45.190;5.732;2023-03-14T23:27:24;99182.75;;;9.65;98.52
15670;BME280;18524;45.190;5.732;2023-03-14T23:32:14;99184.34;;;9.67;100.00
15670;BME280;18524;45.190;5.732;2023-03-14T23:37:05;99191.56;;;9.64;97.58
15670;BME280;18524;45.190;5.732;2023-03-14T23:41:55;99193.44;;;9.51;97.63
15670;BME280;18524;45.190;5.732;2023-03-14T23:46:46;99197.34;;;9.34;99.36
15670;BME280;18524;45.190;5.732;2023-03-14T23:51:36;99182.78;;;9.19;100.00
15670;BME280;18524;45.190;5.732;2023-03-14T23:56:26;99191.72;;;9.27;100.00
